createdAt,value
2018-12-17T00:00:58.066Z,47.55
2018-12-17T00:06:01.650Z,47.32
2018-12-17T00:11:05.032Z,47.01
2018-12-17T00:16:08.336Z,47.30
2018-12-17T00:21:11.633Z,47.50
2018-12-17T00:26:14.932Z,47.37
2018-12-17T00:31:18.249Z,47.29
2018-12-17T00:36:21.545Z,47.20
2018-12-17T00:41:24.854Z,47.51
2018-12-17T00:46:28.168Z,47.46
2018-12-17T00:51:31.545Z,47.61
2018-12-17T00:56:34.861Z,47.88
2018-12-17T01:01:38.162Z,47.77
2018-12-17T01:06:41.477Z,47.49
2018-12-17T01:11:44.785Z,47.62
2018-12-17T01:16:48.081Z,48.09
2018-12-17T01:21:51.463Z,47.65
2018-12-17T01:26:54.755Z,47.64
2018-12-17T01:31:58.050Z,47.65
2018-12-17T01:37:01.342Z,47.84
2018-12-17T01:42:04.642Z,47.67
2018-12-17T01:47:07.970Z,47.58
2018-12-17T01:52:11.273Z,47.84
2018-12-17T01:57:14.654Z,47.73
2018-12-17T02:02:17.954Z,47.84
2018-12-17T02:07:21.245Z,48.16
2018-12-17T02:12:24.562Z,47.88
2018-12-17T02:17:27.866Z,48.07
2018-12-17T02:22:31.258Z,48.39
2018-12-17T02:27:34.573Z,48.51
2018-12-17T02:32:37.922Z,48.41
2018-12-17T02:37:41.243Z,48.57
2018-12-17T02:42:44.545Z,48.94
2018-12-17T02:47:47.837Z,48.74
2018-12-17T02:52:51.134Z,48.89
2018-12-17T02:57:54.455Z,49.10
2018-12-17T03:02:57.762Z,49.01
2018-12-17T03:08:01.145Z,48.50
2018-12-17T03:13:04.458Z,48.67
2018-12-17T03:18:07.766Z,48.81
2018-12-17T03:23:11.072Z,48.80
2018-12-17T03:28:14.369Z,48.79
2018-12-17T03:33:17.667Z,49.07
2018-12-17T03:38:20.970Z,48.99
2018-12-17T03:43:24.304Z,49.29
2018-12-17T03:48:27.596Z,49.42
2018-12-17T03:53:30.893Z,49.30
2018-12-17T03:58:34.193Z,49.20
2018-12-17T04:03:37.649Z,49.05
2018-12-17T04:08:40.958Z,48.84
2018-12-17T04:13:44.254Z,49.01
2018-12-17T04:18:47.560Z,48.90
2018-12-17T04:23:50.983Z,49.20
2018-12-17T04:28:54.285Z,49.06
2018-12-17T04:33:57.605Z,49.29
2018-12-17T04:39:00.921Z,50.06
2018-12-17T04:44:04.221Z,49.13
2018-12-17T04:49:07.534Z,48.74
2018-12-17T04:54:10.881Z,48.96
2018-12-17T04:59:14.824Z,48.57
2018-12-17T05:04:18.608Z,48.63
2018-12-17T05:09:21.960Z,48.10
2018-12-17T05:14:25.253Z,47.75
2018-12-17T05:19:28.558Z,47.68
2018-12-17T05:24:31.917Z,47.23
2018-12-17T05:29:35.233Z,47.71
2018-12-17T05:34:38.549Z,47.49
2018-12-17T05:39:41.919Z,47.85
2018-12-17T05:44:45.218Z,47.63
2018-12-17T05:49:48.521Z,47.89
2018-12-17T05:54:51.878Z,47.88
2018-12-17T05:59:55.182Z,47.70
2018-12-17T06:04:58.473Z,47.96
2018-12-17T06:10:01.795Z,47.56
2018-12-17T06:15:05.805Z,47.66
2018-12-17T06:20:09.097Z,47.12
2018-12-17T06:25:12.390Z,47.38
2018-12-17T06:30:15.685Z,47.53
2018-12-17T06:35:18.979Z,47.43
2018-12-17T06:40:22.293Z,47.60
2018-12-17T06:45:25.593Z,47.59
2018-12-17T06:50:28.881Z,47.42
2018-12-17T06:55:32.177Z,47.50
2018-12-17T07:00:35.465Z,47.95
2018-12-17T07:05:38.749Z,47.75
2018-12-17T07:10:42.053Z,47.56
2018-12-17T07:15:45.374Z,47.30
2018-12-17T07:20:48.666Z,47.40
2018-12-17T07:25:51.949Z,47.45
2018-12-17T07:30:55.245Z,47.42
2018-12-17T07:35:58.538Z,47.62
2018-12-17T07:41:02.209Z,47.34
2018-12-17T07:46:05.499Z,47.53
2018-12-17T07:51:08.791Z,47.60
2018-12-17T07:56:12.077Z,48.08
2018-12-17T08:01:15.373Z,48.09
2018-12-17T08:06:18.670Z,47.93
2018-12-17T08:11:21.960Z,47.83
2018-12-17T08:16:25.269Z,47.82
2018-12-17T08:21:28.581Z,35.75
2018-12-17T08:26:31.898Z,37.06
2018-12-17T08:31:35.224Z,37.88
2018-12-17T08:36:38.549Z,38.93
2018-12-17T08:41:41.869Z,39.17
2018-12-17T08:46:45.175Z,39.65
2018-12-17T08:51:48.813Z,38.86
2018-12-17T08:56:52.113Z,36.63
2018-12-17T09:01:55.419Z,36.61
2018-12-17T09:06:58.714Z,35.65
2018-12-17T09:12:02.034Z,35.82
2018-12-17T09:17:05.336Z,36.68
2018-12-17T09:22:08.642Z,37.17
2018-12-17T09:27:12.022Z,37.28
2018-12-17T09:32:15.316Z,37.90
2018-12-17T09:37:18.647Z,38.81
2018-12-17T09:42:21.947Z,39.08
2018-12-17T09:47:25.229Z,39.73
2018-12-17T09:52:28.524Z,40.07
2018-12-17T09:57:31.841Z,40.53
2018-12-17T10:02:35.128Z,40.68
2018-12-17T10:07:38.417Z,40.80
2018-12-17T10:12:41.753Z,40.39
2018-12-17T10:17:45.040Z,41.00
2018-12-17T10:22:48.357Z,41.48
2018-12-17T10:27:51.655Z,41.33
2018-12-17T10:32:54.977Z,41.46
2018-12-17T10:37:58.418Z,42.00
2018-12-17T10:43:01.721Z,43.06
2018-12-17T10:48:05.039Z,44.75
2018-12-17T10:53:08.352Z,45.35
2018-12-17T10:58:11.662Z,46.17
2018-12-17T11:08:33.455Z,46.95
2018-12-17T11:13:36.897Z,50.21
2018-12-17T11:18:40.220Z,51.61
2018-12-17T11:23:43.546Z,52.44
2018-12-17T11:28:46.866Z,52.06
2018-12-17T11:33:50.246Z,52.05
2018-12-17T11:38:53.553Z,51.92
2018-12-17T11:43:56.861Z,51.76
2018-12-17T11:49:00.185Z,51.83
2018-12-17T11:54:03.498Z,51.80
2018-12-17T11:59:06.844Z,51.26
2018-12-17T12:04:10.249Z,50.81
2018-12-17T12:09:18.549Z,50.25
2018-12-17T12:14:22.049Z,50.23
2018-12-17T12:19:25.352Z,48.97
2018-12-17T12:24:28.645Z,49.63
2018-12-17T12:29:31.946Z,49.45
2018-12-17T12:34:35.255Z,49.41
2018-12-17T12:39:38.584Z,49.17
2018-12-17T12:44:41.893Z,49.21
2018-12-17T12:49:45.193Z,49.20
2018-12-17T12:54:48.510Z,49.09
2018-12-17T12:59:51.841Z,48.93
2018-12-17T13:04:55.162Z,49.45
2018-12-17T13:09:58.471Z,36.80
2018-12-17T13:15:01.803Z,37.13
2018-12-17T13:20:07.582Z,38.81
2018-12-17T13:25:24.383Z,39.29
2018-12-17T13:30:27.780Z,40.33
2018-12-17T13:35:31.098Z,41.09
2018-12-17T13:40:34.426Z,38.54
2018-12-17T13:45:37.754Z,36.64
2018-12-17T13:50:41.061Z,35.66
2018-12-17T13:55:44.436Z,35.75
2018-12-17T14:00:47.821Z,35.71
2018-12-17T14:05:51.138Z,37.00
2018-12-17T14:10:54.914Z,37.52
2018-12-17T14:16:03.548Z,37.18
2018-12-17T14:21:13.790Z,37.13
2018-12-17T14:26:17.260Z,38.06
2018-12-17T14:31:20.589Z,38.84
2018-12-17T14:36:23.913Z,39.21
2018-12-17T14:41:27.238Z,40.16
2018-12-17T14:46:34.722Z,40.89
2018-12-17T14:51:38.017Z,41.37
2018-12-17T14:56:41.322Z,40.63
2018-12-17T15:01:44.687Z,40.91
2018-12-17T15:06:48.021Z,41.12
2018-12-17T15:11:51.348Z,41.62
2018-12-17T15:16:54.661Z,42.44
2018-12-17T15:21:57.985Z,42.27
2018-12-17T15:27:01.284Z,43.06
2018-12-17T15:32:04.677Z,43.74
2018-12-17T15:37:07.989Z,43.69
2018-12-17T15:42:11.301Z,43.66
2018-12-17T15:47:14.629Z,43.64
2018-12-17T15:52:17.968Z,44.13
2018-12-17T15:57:21.295Z,43.50
2018-12-17T16:02:24.604Z,43.59
2018-12-17T16:07:27.935Z,43.72
2018-12-17T16:12:31.260Z,43.68
2018-12-17T16:17:34.606Z,43.86
2018-12-17T16:22:37.917Z,43.92
2018-12-17T16:27:41.235Z,43.77
2018-12-17T16:32:44.560Z,44.40
2018-12-17T16:37:47.870Z,44.19
2018-12-17T16:42:51.194Z,43.83
2018-12-17T16:47:55.105Z,43.74
2018-12-17T16:52:58.424Z,43.67
2018-12-17T16:58:01.756Z,43.97
2018-12-17T17:03:05.060Z,43.82
2018-12-17T17:08:08.376Z,43.49
2018-12-17T17:13:11.727Z,43.97
2018-12-17T17:18:15.053Z,44.88
2018-12-17T17:23:18.509Z,44.89
2018-12-17T17:28:21.866Z,44.61
2018-12-17T17:33:25.189Z,45.04
2018-12-17T17:38:28.517Z,45.24
2018-12-17T17:43:31.854Z,44.93
2018-12-17T17:48:35.181Z,45.19
2018-12-17T17:53:38.503Z,45.42
2018-12-17T17:58:41.886Z,45.51
2018-12-17T18:03:45.209Z,45.31
2018-12-17T18:08:48.526Z,45.58
2018-12-17T18:13:51.865Z,45.38
2018-12-17T18:18:55.195Z,45.82
2018-12-17T18:23:58.507Z,45.54
2018-12-17T18:29:02.742Z,45.44
2018-12-17T18:34:06.338Z,45.38
2018-12-17T18:39:09.852Z,45.65
2018-12-17T18:44:13.215Z,45.76
2018-12-17T18:49:16.660Z,45.46
2018-12-17T18:54:20.021Z,45.48
2018-12-17T18:59:23.356Z,45.81
2018-12-17T19:04:26.669Z,45.46
2018-12-17T19:09:30.014Z,45.47
2018-12-17T19:14:33.357Z,45.67
2018-12-17T19:19:36.690Z,45.46
2018-12-17T19:24:40.025Z,45.56
2018-12-17T19:29:43.342Z,45.69
2018-12-17T19:34:46.732Z,45.59
2018-12-17T19:39:50.101Z,45.52
2018-12-17T19:44:53.443Z,45.80
2018-12-17T19:49:56.811Z,45.58
2018-12-17T19:55:00.182Z,45.72
2018-12-17T20:00:03.876Z,45.88
2018-12-17T20:05:07.249Z,45.70
2018-12-17T20:10:14.714Z,45.74
2018-12-17T20:15:18.109Z,45.78
2018-12-17T20:20:21.438Z,45.83
2018-12-17T20:25:24.805Z,45.82
2018-12-17T20:30:28.629Z,45.86
2018-12-17T20:35:31.970Z,45.92
2018-12-17T20:40:35.302Z,45.61
2018-12-17T20:45:38.629Z,45.88
2018-12-17T20:50:41.964Z,45.87
2018-12-17T20:55:45.301Z,45.94
2018-12-17T21:00:48.642Z,45.94
2018-12-17T21:05:51.981Z,45.85
2018-12-17T21:10:55.330Z,45.85
2018-12-17T21:15:58.661Z,45.83
2018-12-17T21:21:02.002Z,45.80
2018-12-17T21:26:05.351Z,45.93
2018-12-17T21:31:08.680Z,45.60
2018-12-17T21:36:12.014Z,46.04
2018-12-17T21:41:15.429Z,45.84
2018-12-17T21:46:18.777Z,45.69
2018-12-17T21:51:22.105Z,45.86
2018-12-17T21:56:25.440Z,45.75
2018-12-17T22:01:28.761Z,46.31
2018-12-17T22:06:32.112Z,46.05
2018-12-17T22:11:35.705Z,45.88
2018-12-17T22:16:39.050Z,46.06
2018-12-17T22:21:42.373Z,45.95
2018-12-17T22:26:45.734Z,45.55
2018-12-17T22:31:49.110Z,45.73
2018-12-17T22:36:52.435Z,45.82
2018-12-17T22:41:55.837Z,46.08
2018-12-17T22:46:59.197Z,45.97
2018-12-17T22:52:02.530Z,46.08
2018-12-17T22:57:05.845Z,45.74
2018-12-17T23:02:09.157Z,45.99
2018-12-17T23:07:12.491Z,45.89
2018-12-17T23:12:27.237Z,45.77
2018-12-17T23:17:39.993Z,46.16
2018-12-17T23:22:43.857Z,46.23
2018-12-17T23:27:50.252Z,45.81
2018-12-17T23:32:53.594Z,45.74
2018-12-17T23:37:56.905Z,46.01
2018-12-17T23:43:00.222Z,45.87
